sensor_id;sensor_type;location;lat;lon;timestamp;P1;durP1;ratioP1;P2;durP2;ratioP2
23222;SDS011;11780;13.904;100.620;2023-12-28T00:02:20;25.90;;;19.67;;
23222;SDS011;11780;13.904;100.620;2023-12-28T00:04:51;31.13;;;21.88;;
23222;SDS011;11780;13.904;100.620;2023-12-28T00:07:21;32.73;;;24.83;;
23222;SDS011;11780;13.904;100.620;2023-12-28T00:09:52;32.65;;;22.50;;
23222;SDS011;11780;13.904;100.620;2023-12-28T00:12:22;25.97;;;21.60;;
23222;SDS011;11780;13.904;100.620;2023-12-28T00:14:53;34.30;;;21.70;;
23222;SDS011;11780;13.904;100.620;2023-12-28T00:17:23;33.38;;;21.70;;
23222;SDS011;11780;13.904;100.620;2023-12-28T00:19:54;28.23;;;21.30;;
23222;SDS011;11780;13.904;100.620;2023-12-28T00:22:24;34.40;;;21.27;;
23222;SDS011;11780;13.904;100.620;2023-12-28T00:24:55;26.48;;;20.52;;
23222;SDS011;11780;13.904;100.620;2023-12-28T00:27:25;27.67;;;20.37;;
23222;SDS011;11780;13.904;100.620;2023-12-28T00:29:59;30.80;;;21.17;;
23222;SDS011;11780;13.904;100.620;2023-12-28T00:32:30;29.05;;;19.38;;
23222;SDS011;11780;13.904;100.620;2023-12-28T00:35:00;27.10;;;19.30;;
23222;SDS011;11780;13.904;100.620;2023-12-28T00:37:33;29.05;;;19.55;;
23222;SDS011;11780;13.904;100.620;2023-12-28T00:40:03;24.37;;;18.63;;
23222;SDS011;11780;13.904;100.620;2023-12-28T00:42:34;34.63;;;21.73;;
23222;SDS011;11780;13.904;100.620;2023-12-28T00:45:05;42.70;;;26.30;;
23222;SDS011;11780;13.904;100.620;2023-12-28T00:47:36;39.05;;;26.20;;
23222;SDS011;11780;13.904;100.620;2023-12-28T00:50:07;46.43;;;28.20;;
23222;SDS011;11780;13.904;100.620;2023-12-28T00:52:37;46.23;;;27.20;;
23222;SDS011;11780;13.904;100.620;2023-12-28T00:55:08;41.20;;;27.27;;
23222;SDS011;11780;13.904;100.620;2023-12-28T01:00:10;45.58;;;27.63;;
23222;SDS011;11780;13.904;100.620;2023-12-28T01:02:41;54.13;;;29.85;;
23222;SDS011;11780;13.904;100.620;2023-12-28T01:05:13;42.05;;;24.05;;
23222;SDS011;11780;13.904;100.620;2023-12-28T01:07:44;36.63;;;24.65;;
23222;SDS011;11780;13.904;100.620;2023-12-28T01:10:14;40.07;;;24.77;;
23222;SDS011;11780;13.904;100.620;2023-12-28T01:12:45;39.67;;;25.77;;
23222;SDS011;11780;13.904;100.620;2023-12-28T01:15:16;33.00;;;23.45;;
23222;SDS011;11780;13.904;100.620;2023-12-28T01:17:47;40.42;;;23.33;;
23222;SDS011;11780;13.904;100.620;2023-12-28T01:20:18;30.30;;;20.10;;
23222;SDS011;11780;13.904;100.620;2023-12-28T01:22:48;33.50;;;21.48;;
23222;SDS011;11780;13.904;100.620;2023-12-28T01:25:20;29.88;;;20.25;;
23222;SDS011;11780;13.904;100.620;2023-12-28T01:27:50;33.33;;;21.80;;
23222;SDS011;11780;13.904;100.620;2023-12-28T01:30:21;30.33;;;21.30;;
23222;SDS011;11780;13.904;100.620;2023-12-28T01:32:52;28.73;;;20.37;;
23222;SDS011;11780;13.904;100.620;2023-12-28T01:35:22;26.23;;;19.70;;
23222;SDS011;11780;13.904;100.620;2023-12-28T01:37:53;28.77;;;20.13;;
23222;SDS011;11780;13.904;100.620;2023-12-28T01:40:25;29.00;;;19.23;;
23222;SDS011;11780;13.904;100.620;2023-12-28T01:42:55;26.95;;;18.38;;
23222;SDS011;11780;13.904;100.620;2023-12-28T01:45:26;30.67;;;19.80;;
23222;SDS011;11780;13.904;100.620;2023-12-28T01:47:57;26.27;;;19.02;;
23222;SDS011;11780;13.904;100.620;2023-12-28T01:50:30;25.98;;;18.73;;
23222;SDS011;11780;13.904;100.620;2023-12-28T01:53:01;23.10;;;17.80;;
23222;SDS011;11780;13.904;100.620;2023-12-28T01:55:33;25.15;;;17.90;;
23222;SDS011;11780;13.904;100.620;2023-12-28T01:58:04;22.53;;;17.77;;
23222;SDS011;11780;13.904;100.620;2023-12-28T02:00:34;26.53;;;17.93;;
23222;SDS011;11780;13.904;100.620;2023-12-28T02:03:07;18.77;;;16.77;;
23222;SDS011;11780;13.904;100.620;2023-12-28T02:05:38;24.33;;;17.40;;
23222;SDS011;11780;13.904;100.620;2023-12-28T02:08:09;21.90;;;16.60;;
23222;SDS011;11780;13.904;100.620;2023-12-28T02:10:39;24.95;;;16.83;;
23222;SDS011;11780;13.904;100.620;2023-12-28T02:13:10;21.73;;;15.93;;
23222;SDS011;11780;13.904;100.620;2023-12-28T02:15:41;22.50;;;17.10;;
23222;SDS011;11780;13.904;100.620;2023-12-28T02:18:16;22.55;;;16.92;;
23222;SDS011;11780;13.904;100.620;2023-12-28T02:20:51;19.17;;;16.20;;
23222;SDS011;11780;13.904;100.620;2023-12-28T02:23:22;24.45;;;17.00;;
23222;SDS011;11780;13.904;100.620;2023-12-28T02:25:53;21.15;;;15.48;;
23222;SDS011;11780;13.904;100.620;2023-12-28T02:28:23;20.73;;;16.93;;
23222;SDS011;11780;13.904;100.620;2023-12-28T02:30:54;21.77;;;15.48;;
23222;SDS011;11780;13.904;100.620;2023-12-28T02:33:26;21.83;;;16.60;;
23222;SDS011;11780;13.904;100.620;2023-12-28T02:36:09;22.80;;;17.52;;
23222;SDS011;11780;13.904;100.620;2023-12-28T02:38:41;22.50;;;16.85;;
23222;SDS011;11780;13.904;100.620;2023-12-28T02:41:13;22.17;;;17.70;;
23222;SDS011;11780;13.904;100.620;2023-12-28T02:43:43;19.70;;;16.63;;
23222;SDS011;11780;13.904;100.620;2023-12-28T02:46:14;23.93;;;17.87;;
23222;SDS011;11780;13.904;100.620;2023-12-28T02:48:44;18.73;;;15.95;;
23222;SDS011;11780;13.904;100.620;2023-12-28T02:51:15;21.23;;;17.02;;
23222;SDS011;11780;13.904;100.620;2023-12-28T02:53:46;23.53;;;16.93;;
23222;SDS011;11780;13.904;100.620;2023-12-28T02:56:16;23.02;;;15.88;;
23222;SDS011;11780;13.904;100.620;2023-12-28T02:58:47;20.73;;;16.48;;
23222;SDS011;11780;13.904;100.620;2023-12-28T03:01:17;20.92;;;15.57;;
23222;SDS011;11780;13.904;100.620;2023-12-28T03:03:49;21.98;;;16.25;;
23222;SDS011;11780;13.904;100.620;2023-12-28T03:06:19;23.63;;;16.23;;
23222;SDS011;11780;13.904;100.620;2023-12-28T03:08:51;23.98;;;15.82;;
23222;SDS011;11780;13.904;100.620;2023-12-28T03:11:22;21.98;;;16.63;;
23222;SDS011;11780;13.904;100.620;2023-12-28T03:13:54;24.92;;;16.63;;
23222;SDS011;11780;13.904;100.620;2023-12-28T03:16:24;22.13;;;16.67;;
23222;SDS011;11780;13.904;100.620;2023-12-28T03:18:54;20.10;;;16.77;;
23222;SDS011;11780;13.904;100.620;2023-12-28T03:21:25;20.43;;;16.23;;
23222;SDS011;11780;13.904;100.620;2023-12-28T03:23:56;20.10;;;15.73;;
23222;SDS011;11780;13.904;100.620;2023-12-28T03:26:26;21.10;;;15.55;;
23222;SDS011;11780;13.904;100.620;2023-12-28T03:28:57;18.63;;;15.13;;
23222;SDS011;11780;13.904;100.620;2023-12-28T03:31:27;19.83;;;15.55;;
23222;SDS011;11780;13.904;100.620;2023-12-28T03:33:58;18.73;;;14.95;;
23222;SDS011;11780;13.904;100.620;2023-12-28T03:36:29;19.23;;;15.20;;
23222;SDS011;11780;13.904;100.620;2023-12-28T03:39:00;20.90;;;15.47;;
23222;SDS011;11780;13.904;100.620;2023-12-28T03:41:30;20.58;;;15.02;;
23222;SDS011;11780;13.904;100.620;2023-12-28T03:44:01;20.37;;;14.53;;
23222;SDS011;11780;13.904;100.620;2023-12-28T03:46:32;15.50;;;13.83;;
23222;SDS011;11780;13.904;100.620;2023-12-28T03:49:02;18.90;;;14.10;;
23222;SDS011;11780;13.904;100.620;2023-12-28T03:51:33;19.58;;;13.93;;
23222;SDS011;11780;13.904;100.620;2023-12-28T03:54:03;18.27;;;13.77;;
23222;SDS011;11780;13.904;100.620;2023-12-28T03:56:34;16.23;;;14.25;;
23222;SDS011;11780;13.904;100.620;2023-12-28T03:59:06;14.95;;;12.82;;
23222;SDS011;11780;13.904;100.620;2023-12-28T04:01:36;16.50;;;12.77;;
23222;SDS011;11780;13.904;100.620;2023-12-28T04:04:07;15.47;;;13.87;;
23222;SDS011;11780;13.904;100.620;2023-12-28T04:06:38;15.25;;;13.35;;
23222;SDS011;11780;13.904;100.620;2023-12-28T04:09:12;19.75;;;12.88;;
23222;SDS011;11780;13.904;100.620;2023-12-28T04:11:43;17.42;;;13.55;;
23222;SDS011;11780;13.904;100.620;2023-12-28T04:14:13;14.63;;;12.93;;
23222;SDS011;11780;13.904;100.620;2023-12-28T04:16:44;16.27;;;14.00;;
23222;SDS011;11780;13.904;100.620;2023-12-28T04:19:14;17.53;;;13.93;;
23222;SDS011;11780;13.904;100.620;2023-12-28T04:21:47;17.45;;;13.20;;
23222;SDS011;11780;13.904;100.620;2023-12-28T04:24:18;15.07;;;13.43;;
23222;SDS011;11780;13.904;100.620;2023-12-28T04:26:48;15.03;;;13.40;;
23222;SDS011;11780;13.904;100.620;2023-12-28T04:29:19;18.15;;;13.68;;
23222;SDS011;11780;13.904;100.620;2023-12-28T04:31:50;18.60;;;13.85;;
23222;SDS011;11780;13.904;100.620;2023-12-28T04:34:21;15.27;;;13.77;;
23222;SDS011;11780;13.904;100.620;2023-12-28T04:36:52;20.48;;;14.90;;
23222;SDS011;11780;13.904;100.620;2023-12-28T04:39:23;19.23;;;13.70;;
23222;SDS011;11780;13.904;100.620;2023-12-28T04:41:53;15.18;;;13.40;;
23222;SDS011;11780;13.904;100.620;2023-12-28T04:44:24;15.67;;;14.00;;
23222;SDS011;11780;13.904;100.620;2023-12-28T04:46:55;15.27;;;13.45;;
23222;SDS011;11780;13.904;100.620;2023-12-28T04:49:26;17.33;;;13.87;;
23222;SDS011;11780;13.904;100.620;2023-12-28T04:51:57;16.73;;;13.57;;
23222;SDS011;11780;13.904;100.620;2023-12-28T04:54:27;15.83;;;14.17;;
23222;SDS011;11780;13.904;100.620;2023-12-28T04:56:58;15.68;;;13.43;;
23222;SDS011;11780;13.904;100.620;2023-12-28T04:59:29;16.80;;;13.52;;
23222;SDS011;11780;13.904;100.620;2023-12-28T05:01:59;18.52;;;14.38;;
23222;SDS011;11780;13.904;100.620;2023-12-28T05:04:30;16.27;;;14.43;;
23222;SDS011;11780;13.904;100.620;2023-12-28T05:09:31;16.27;;;13.23;;
23222;SDS011;11780;13.904;100.620;2023-12-28T05:12:02;15.80;;;13.88;;
23222;SDS011;11780;13.904;100.620;2023-12-28T05:14:32;18.07;;;13.77;;
23222;SDS011;11780;13.904;100.620;2023-12-28T05:17:03;17.20;;;12.80;;
23222;SDS011;11780;13.904;100.620;2023-12-28T05:19:33;14.77;;;12.93;;
23222;SDS011;11780;13.904;100.620;2023-12-28T05:22:04;15.57;;;13.43;;
23222;SDS011;11780;13.904;100.620;2023-12-28T05:24:36;16.13;;;13.57;;
23222;SDS011;11780;13.904;100.620;2023-12-28T05:27:07;16.50;;;13.18;;
23222;SDS011;11780;13.904;100.620;2023-12-28T05:29:37;14.27;;;11.82;;
23222;SDS011;11780;13.904;100.620;2023-12-28T05:32:07;17.73;;;12.23;;
23222;SDS011;11780;13.904;100.620;2023-12-28T05:34:38;17.43;;;12.57;;
23222;SDS011;11780;13.904;100.620;2023-12-28T05:37:09;15.13;;;12.70;;
23222;SDS011;11780;13.904;100.620;2023-12-28T05:39:39;19.60;;;12.80;;
23222;SDS011;11780;13.904;100.620;2023-12-28T05:42:10;13.90;;;12.40;;
23222;SDS011;11780;13.904;100.620;2023-12-28T05:44:40;17.60;;;12.47;;
23222;SDS011;11780;13.904;100.620;2023-12-28T05:47:11;15.82;;;11.90;;
23222;SDS011;11780;13.904;100.620;2023-12-28T05:49:41;14.60;;;11.97;;
23222;SDS011;11780;13.904;100.620;2023-12-28T05:52:12;15.83;;;12.70;;
23222;SDS011;11780;13.904;100.620;2023-12-28T05:54:44;17.23;;;11.70;;
23222;SDS011;11780;13.904;100.620;2023-12-28T05:57:17;13.63;;;11.57;;
23222;SDS011;11780;13.904;100.620;2023-12-28T05:59:48;14.70;;;10.88;;
23222;SDS011;11780;13.904;100.620;2023-12-28T06:02:18;12.57;;;10.90;;
23222;SDS011;11780;13.904;100.620;2023-12-28T06:04:49;12.70;;;11.03;;
23222;SDS011;11780;13.904;100.620;2023-12-28T06:07:19;13.00;;;10.90;;
23222;SDS011;11780;13.904;100.620;2023-12-28T06:09:50;11.87;;;10.50;;
23222;SDS011;11780;13.904;100.620;2023-12-28T06:12:20;14.65;;;11.00;;
23222;SDS011;11780;13.904;100.620;2023-12-28T06:14:51;14.40;;;10.65;;
23222;SDS011;11780;13.904;100.620;2023-12-28T06:17:21;13.73;;;10.98;;
23222;SDS011;11780;13.904;100.620;2023-12-28T06:19:52;14.80;;;10.37;;
23222;SDS011;11780;13.904;100.620;2023-12-28T06:22:22;13.10;;;9.80;;
23222;SDS011;11780;13.904;100.620;2023-12-28T06:24:56;12.93;;;10.27;;
23222;SDS011;11780;13.904;100.620;2023-12-28T06:27:27;12.43;;;10.43;;
23222;SDS011;11780;13.904;100.620;2023-12-28T06:29:57;14.57;;;10.17;;
23222;SDS011;11780;13.904;100.620;2023-12-28T06:32:28;13.60;;;10.53;;
23222;SDS011;11780;13.904;100.620;2023-12-28T06:34:58;14.13;;;10.10;;
23222;SDS011;11780;13.904;100.620;2023-12-28T06:37:29;11.75;;;10.38;;
23222;SDS011;11780;13.904;100.620;2023-12-28T06:39:59;11.97;;;10.67;;
23222;SDS011;11780;13.904;100.620;2023-12-28T06:42:30;10.85;;;9.57;;
23222;SDS011;11780;13.904;100.620;2023-12-28T06:45:00;13.07;;;9.70;;
23222;SDS011;11780;13.904;100.620;2023-12-28T06:47:31;13.05;;;9.63;;
23222;SDS011;11780;13.904;100.620;2023-12-28T06:50:02;11.33;;;9.20;;
23222;SDS011;11780;13.904;100.620;2023-12-28T06:52:33;13.82;;;9.73;;
23222;SDS011;11780;13.904;100.620;2023-12-28T06:55:04;11.05;;;9.55;;
23222;SDS011;11780;13.904;100.620;2023-12-28T06:57:34;10.40;;;9.20;;
23222;SDS011;11780;13.904;100.620;2023-12-28T07:00:05;10.30;;;9.30;;
23222;SDS011;11780;13.904;100.620;2023-12-28T07:05:06;14.60;;;9.38;;
23222;SDS011;11780;13.904;100.620;2023-12-28T07:10:07;10.55;;;9.02;;
23222;SDS011;11780;13.904;100.620;2023-12-28T07:12:38;11.83;;;9.10;;
23222;SDS011;11780;13.904;100.620;2023-12-28T07:15:08;10.53;;;9.37;;
23222;SDS011;11780;13.904;100.620;2023-12-28T07:17:43;12.55;;;9.25;;
23222;SDS011;11780;13.904;100.620;2023-12-28T07:20:13;11.33;;;9.47;;
23222;SDS011;11780;13.904;100.620;2023-12-28T07:22:44;12.70;;;9.17;;
23222;SDS011;11780;13.904;100.620;2023-12-28T07:25:14;10.32;;;9.23;;
23222;SDS011;11780;13.904;100.620;2023-12-28T07:27:44;10.95;;;8.48;;
23222;SDS011;11780;13.904;100.620;2023-12-28T07:30:15;9.23;;;8.32;;
23222;SDS011;11780;13.904;100.620;2023-12-28T07:35:17;10.23;;;8.30;;
23222;SDS011;11780;13.904;100.620;2023-12-28T07:40:19;13.25;;;9.10;;
23222;SDS011;11780;13.904;100.620;2023-12-28T07:42:50;10.43;;;8.90;;
23222;SDS011;11780;13.904;100.620;2023-12-28T07:45:20;9.90;;;8.90;;
23222;SDS011;11780;13.904;100.620;2023-12-28T07:47:53;10.82;;;8.45;;
23222;SDS011;11780;13.904;100.620;2023-12-28T07:52:54;10.40;;;8.73;;
23222;SDS011;11780;13.904;100.620;2023-12-28T07:55:24;12.05;;;9.40;;
23222;SDS011;11780;13.904;100.620;2023-12-28T08:00:26;10.82;;;8.43;;
23222;SDS011;11780;13.904;100.620;2023-12-28T08:02:57;9.60;;;7.50;;
23222;SDS011;11780;13.904;100.620;2023-12-28T08:05:27;9.37;;;8.00;;
23222;SDS011;11780;13.904;100.620;2023-12-28T08:07:58;10.48;;;8.32;;
23222;SDS011;11780;13.904;100.620;2023-12-28T08:10:29;10.82;;;7.80;;
23222;SDS011;11780;13.904;100.620;2023-12-28T08:12:59;10.60;;;8.55;;
23222;SDS011;11780;13.904;100.620;2023-12-28T08:15:30;9.30;;;7.67;;
23222;SDS011;11780;13.904;100.620;2023-12-28T08:18:00;9.33;;;8.30;;
23222;SDS011;11780;13.904;100.620;2023-12-28T08:23:01;11.73;;;8.32;;
23222;SDS011;11780;13.904;100.620;2023-12-28T08:25:44;8.70;;;7.68;;
23222;SDS011;11780;13.904;100.620;2023-12-28T08:28:14;8.77;;;7.63;;
23222;SDS011;11780;13.904;100.620;2023-12-28T08:30:46;13.88;;;8.07;;
23222;SDS011;11780;13.904;100.620;2023-12-28T08:33:17;11.93;;;7.90;;
23222;SDS011;11780;13.904;100.620;2023-12-28T08:35:48;11.25;;;8.18;;
23222;SDS011;11780;13.904;100.620;2023-12-28T08:38:18;10.13;;;7.60;;
23222;SDS011;11780;13.904;100.620;2023-12-28T08:40:49;10.43;;;7.53;;
23222;SDS011;11780;13.904;100.620;2023-12-28T08:43:20;9.40;;;7.85;;
23222;SDS011;11780;13.904;100.620;2023-12-28T08:45:53;9.50;;;7.73;;
23222;SDS011;11780;13.904;100.620;2023-12-28T08:48:24;12.73;;;8.15;;
23222;SDS011;11780;13.904;100.620;2023-12-28T08:50:55;8.70;;;7.83;;
23222;SDS011;11780;13.904;100.620;2023-12-28T08:53:25;11.30;;;7.90;;
23222;SDS011;11780;13.904;100.620;2023-12-28T08:55:56;8.60;;;7.70;;
23222;SDS011;11780;13.904;100.620;2023-12-28T08:58:26;9.00;;;8.15;;
23222;SDS011;11780;13.904;100.620;2023-12-28T09:00:57;8.25;;;7.45;;
23222;SDS011;11780;13.904;100.620;2023-12-28T09:03:27;8.05;;;7.22;;
23222;SDS011;11780;13.904;100.620;2023-12-28T09:05:58;9.10;;;7.80;;
23222;SDS011;11780;13.904;100.620;2023-12-28T09:08:28;9.23;;;7.70;;
23222;SDS011;11780;13.904;100.620;2023-12-28T09:11:01;8.93;;;7.35;;
23222;SDS011;11780;13.904;100.620;2023-12-28T09:13:31;8.25;;;7.45;;
23222;SDS011;11780;13.904;100.620;2023-12-28T09:16:02;10.23;;;7.50;;
23222;SDS011;11780;13.904;100.620;2023-12-28T09:18:33;9.40;;;7.80;;
23222;SDS011;11780;13.904;100.620;2023-12-28T09:21:07;8.32;;;7.45;;
23222;SDS011;11780;13.904;100.620;2023-12-28T09:23:39;11.57;;;7.25;;
23222;SDS011;11780;13.904;100.620;2023-12-28T09:26:10;8.32;;;7.53;;
23222;SDS011;11780;13.904;100.620;2023-12-28T09:28:41;8.15;;;7.35;;
23222;SDS011;11780;13.904;100.620;2023-12-28T09:31:13;8.57;;;7.70;;
23222;SDS011;11780;13.904;100.620;2023-12-28T09:33:43;9.50;;;7.47;;
23222;SDS011;11780;13.904;100.620;2023-12-28T09:36:14;8.57;;;7.30;;
23222;SDS011;11780;13.904;100.620;2023-12-28T09:38:46;9.38;;;7.75;;
23222;SDS011;11780;13.904;100.620;2023-12-28T09:41:17;10.37;;;7.77;;
23222;SDS011;11780;13.904;100.620;2023-12-28T09:43:56;8.23;;;7.43;;
23222;SDS011;11780;13.904;100.620;2023-12-28T09:46:42;8.35;;;7.53;;
23222;SDS011;11780;13.904;100.620;2023-12-28T09:49:14;7.88;;;7.18;;
23222;SDS011;11780;13.904;100.620;2023-12-28T09:51:46;10.80;;;7.38;;
23222;SDS011;11780;13.904;100.620;2023-12-28T09:54:17;7.63;;;6.95;;
23222;SDS011;11780;13.904;100.620;2023-12-28T09:59:18;8.55;;;7.55;;
23222;SDS011;11780;13.904;100.620;2023-12-28T10:01:50;8.80;;;7.63;;
23222;SDS011;11780;13.904;100.620;2023-12-28T10:04:21;9.73;;;8.27;;
23222;SDS011;11780;13.904;100.620;2023-12-28T10:06:51;8.13;;;7.32;;
23222;SDS011;11780;13.904;100.620;2023-12-28T10:09:22;7.97;;;7.28;;
23222;SDS011;11780;13.904;100.620;2023-12-28T10:11:53;9.47;;;8.27;;
23222;SDS011;11780;13.904;100.620;2023-12-28T10:14:25;8.52;;;7.68;;
23222;SDS011;11780;13.904;100.620;2023-12-28T10:16:55;9.45;;;7.68;;
23222;SDS011;11780;13.904;100.620;2023-12-28T10:19:26;8.60;;;7.32;;
23222;SDS011;11780;13.904;100.620;2023-12-28T10:21:57;8.17;;;7.37;;
23222;SDS011;11780;13.904;100.620;2023-12-28T10:24:29;8.43;;;7.60;;
23222;SDS011;11780;13.904;100.620;2023-12-28T10:26:59;10.53;;;8.00;;
23222;SDS011;11780;13.904;100.620;2023-12-28T10:29:30;9.07;;;7.38;;
23222;SDS011;11780;13.904;100.620;2023-12-28T10:32:01;8.93;;;7.93;;
23222;SDS011;11780;13.904;100.620;2023-12-28T10:34:32;8.85;;;7.75;;
23222;SDS011;11780;13.904;100.620;2023-12-28T10:37:03;11.32;;;7.75;;
23222;SDS011;11780;13.904;100.620;2023-12-28T10:39:35;8.80;;;8.00;;
23222;SDS011;11780;13.904;100.620;2023-12-28T10:42:08;8.52;;;7.50;;
23222;SDS011;11780;13.904;100.620;2023-12-28T10:44:44;8.77;;;7.88;;
23222;SDS011;11780;13.904;100.620;2023-12-28T10:47:20;8.27;;;7.47;;
23222;SDS011;11780;13.904;100.620;2023-12-28T10:49:55;8.15;;;7.35;;
23222;SDS011;11780;13.904;100.620;2023-12-28T10:52:30;8.98;;;7.72;;
23222;SDS011;11780;13.904;100.620;2023-12-28T10:58:21;10.73;;;8.60;;
23222;SDS011;11780;13.904;100.620;2023-12-28T11:01:03;9.57;;;8.55;;
23222;SDS011;11780;13.904;100.620;2023-12-28T11:03:39;9.43;;;8.52;;
23222;SDS011;11780;13.904;100.620;2023-12-28T11:06:13;11.32;;;9.45;;
23222;SDS011;11780;13.904;100.620;2023-12-28T11:08:46;15.95;;;11.40;;
23222;SDS011;11780;13.904;100.620;2023-12-28T11:11:21;32.40;;;22.15;;
23222;SDS011;11780;13.904;100.620;2023-12-28T11:13:54;13.63;;;9.95;;
23222;SDS011;11780;13.904;100.620;2023-12-28T11:16:26;28.20;;;17.58;;
23222;SDS011;11780;13.904;100.620;2023-12-28T11:18:59;65.80;;;38.30;;
23222;SDS011;11780;13.904;100.620;2023-12-28T11:21:30;59.35;;;38.80;;
23222;SDS011;11780;13.904;100.620;2023-12-28T11:24:03;48.78;;;31.83;;
23222;SDS011;11780;13.904;100.620;2023-12-28T11:26:36;47.65;;;29.58;;
23222;SDS011;11780;13.904;100.620;2023-12-28T11:29:06;40.87;;;24.27;;
23222;SDS011;11780;13.904;100.620;2023-12-28T11:31:37;49.17;;;30.50;;
23222;SDS011;11780;13.904;100.620;2023-12-28T11:34:07;42.80;;;28.05;;
23222;SDS011;11780;13.904;100.620;2023-12-28T11:36:48;40.10;;;26.92;;
23222;SDS011;11780;13.904;100.620;2023-12-28T11:39:31;38.53;;;26.00;;
23222;SDS011;11780;13.904;100.620;2023-12-28T11:42:03;42.47;;;26.20;;
23222;SDS011;11780;13.904;100.620;2023-12-28T11:44:39;51.03;;;29.38;;
23222;SDS011;11780;13.904;100.620;2023-12-28T11:47:17;45.90;;;29.10;;
23222;SDS011;11780;13.904;100.620;2023-12-28T11:49:51;50.67;;;30.00;;
23222;SDS011;11780;13.904;100.620;2023-12-28T11:52:25;43.00;;;27.55;;
23222;SDS011;11780;13.904;100.620;2023-12-28T11:55:02;49.85;;;29.40;;
23222;SDS011;11780;13.904;100.620;2023-12-28T11:57:34;36.92;;;23.25;;
23222;SDS011;11780;13.904;100.620;2023-12-28T12:00:07;43.28;;;26.45;;
23222;SDS011;11780;13.904;100.620;2023-12-28T12:02:42;42.90;;;26.60;;
23222;SDS011;11780;13.904;100.620;2023-12-28T12:05:17;42.88;;;25.67;;
23222;SDS011;11780;13.904;100.620;2023-12-28T12:07:48;41.17;;;25.37;;
23222;SDS011;11780;13.904;100.620;2023-12-28T12:10:19;37.65;;;25.48;;
23222;SDS011;11780;13.904;100.620;2023-12-28T12:12:52;36.75;;;24.67;;
23222;SDS011;11780;13.904;100.620;2023-12-28T12:15:23;35.35;;;23.77;;
23222;SDS011;11780;13.904;100.620;2023-12-28T12:17:54;32.33;;;22.27;;
23222;SDS011;11780;13.904;100.620;2023-12-28T12:20:24;35.10;;;22.30;;
23222;SDS011;11780;13.904;100.620;2023-12-28T12:22:59;36.70;;;21.73;;
23222;SDS011;11780;13.904;100.620;2023-12-28T12:25:29;31.90;;;21.48;;
23222;SDS011;11780;13.904;100.620;2023-12-28T12:28:00;29.42;;;22.00;;
23222;SDS011;11780;13.904;100.620;2023-12-28T12:30:30;30.37;;;20.97;;
23222;SDS011;11780;13.904;100.620;2023-12-28T12:33:01;29.97;;;20.50;;
23222;SDS011;11780;13.904;100.620;2023-12-28T12:35:32;28.67;;;20.30;;
23222;SDS011;11780;13.904;100.620;2023-12-28T12:38:04;28.70;;;20.20;;
23222;SDS011;11780;13.904;100.620;2023-12-28T12:40:34;30.55;;;20.77;;
23222;SDS011;11780;13.904;100.620;2023-12-28T12:43:05;28.73;;;20.23;;
23222;SDS011;11780;13.904;100.620;2023-12-28T12:45:39;26.75;;;19.45;;
23222;SDS011;11780;13.904;100.620;2023-12-28T12:48:12;27.25;;;19.00;;
23222;SDS011;11780;13.904;100.620;2023-12-28T12:50:43;27.02;;;18.90;;
23222;SDS011;11780;13.904;100.620;2023-12-28T12:55:44;24.15;;;17.88;;
23222;SDS011;11780;13.904;100.620;2023-12-28T12:58:16;25.90;;;17.77;;
23222;SDS011;11780;13.904;100.620;2023-12-28T13:00:46;22.08;;;17.75;;
23222;SDS011;11780;13.904;100.620;2023-12-28T13:03:17;23.50;;;16.83;;
23222;SDS011;11780;13.904;100.620;2023-12-28T13:05:50;23.45;;;17.30;;
23222;SDS011;11780;13.904;100.620;2023-12-28T13:08:22;22.80;;;17.75;;
23222;SDS011;11780;13.904;100.620;2023-12-28T13:10:55;22.15;;;16.88;;
23222;SDS011;11780;13.904;100.620;2023-12-28T13:13:26;19.88;;;15.95;;
23222;SDS011;11780;13.904;100.620;2023-12-28T13:15:56;22.33;;;17.13;;
23222;SDS011;11780;13.904;100.620;2023-12-28T13:18:27;23.43;;;16.80;;
23222;SDS011;11780;13.904;100.620;2023-12-28T13:20:58;21.73;;;16.42;;
23222;SDS011;11780;13.904;100.620;2023-12-28T13:23:28;20.87;;;15.50;;
23222;SDS011;11780;13.904;100.620;2023-12-28T13:25:59;23.00;;;17.17;;
23222;SDS011;11780;13.904;100.620;2023-12-28T13:28:29;21.52;;;16.40;;
23222;SDS011;11780;13.904;100.620;2023-12-28T13:30:59;21.65;;;15.65;;
23222;SDS011;11780;13.904;100.620;2023-12-28T13:33:30;18.47;;;15.20;;
23222;SDS011;11780;13.904;100.620;2023-12-28T13:36:01;22.63;;;16.60;;
23222;SDS011;11780;13.904;100.620;2023-12-28T13:38:32;20.05;;;15.98;;
23222;SDS011;11780;13.904;100.620;2023-12-28T13:41:02;18.23;;;15.97;;
23222;SDS011;11780;13.904;100.620;2023-12-28T13:43:34;21.38;;;15.95;;
23222;SDS011;11780;13.904;100.620;2023-12-28T13:46:05;18.02;;;15.02;;
23222;SDS011;11780;13.904;100.620;2023-12-28T13:48:35;18.17;;;14.32;;
23222;SDS011;11780;13.904;100.620;2023-12-28T13:51:08;21.92;;;16.40;;
23222;SDS011;11780;13.904;100.620;2023-12-28T13:53:40;17.50;;;15.70;;
23222;SDS011;11780;13.904;100.620;2023-12-28T13:56:16;17.08;;;15.27;;
23222;SDS011;11780;13.904;100.620;2023-12-28T13:58:46;18.27;;;14.20;;
23222;SDS011;11780;13.904;100.620;2023-12-28T14:01:17;16.07;;;14.37;;
23222;SDS011;11780;13.904;100.620;2023-12-28T14:03:48;17.95;;;15.32;;
23222;SDS011;11780;13.904;100.620;2023-12-28T14:06:21;17.88;;;14.68;;
23222;SDS011;11780;13.904;100.620;2023-12-28T14:08:52;22.30;;;15.57;;
23222;SDS011;11780;13.904;100.620;2023-12-28T14:11:22;22.77;;;15.10;;
23222;SDS011;11780;13.904;100.620;2023-12-28T14:13:53;19.15;;;15.95;;
23222;SDS011;11780;13.904;100.620;2023-12-28T14:16:23;18.90;;;15.52;;
23222;SDS011;11780;13.904;100.620;2023-12-28T14:21:27;21.90;;;15.43;;
23222;SDS011;11780;13.904;100.620;2023-12-28T14:23:58;20.37;;;15.60;;
23222;SDS011;11780;13.904;100.620;2023-12-28T14:26:29;24.70;;;18.23;;
23222;SDS011;11780;13.904;100.620;2023-12-28T14:29:02;21.17;;;16.20;;
23222;SDS011;11780;13.904;100.620;2023-12-28T14:31:34;23.33;;;17.48;;
23222;SDS011;11780;13.904;100.620;2023-12-28T14:34:05;25.10;;;16.20;;
23222;SDS011;11780;13.904;100.620;2023-12-28T14:36:36;24.05;;;16.25;;
23222;SDS011;11780;13.904;100.620;2023-12-28T14:39:07;19.08;;;16.00;;
23222;SDS011;11780;13.904;100.620;2023-12-28T14:41:39;21.40;;;16.77;;
23222;SDS011;11780;13.904;100.620;2023-12-28T14:44:11;21.65;;;18.45;;
23222;SDS011;11780;13.904;100.620;2023-12-28T14:46:42;24.25;;;18.05;;
23222;SDS011;11780;13.904;100.620;2023-12-28T14:49:13;26.85;;;18.90;;
23222;SDS011;11780;13.904;100.620;2023-12-28T14:51:44;23.80;;;18.93;;
23222;SDS011;11780;13.904;100.620;2023-12-28T14:54:14;22.63;;;18.63;;
23222;SDS011;11780;13.904;100.620;2023-12-28T14:56:44;23.58;;;18.85;;
23222;SDS011;11780;13.904;100.620;2023-12-28T14:59:21;27.58;;;18.33;;